createdAt,value
2017-10-22T00:00:31.743Z,959.44
2017-10-22T00:01:31.750Z,959.43
2017-10-22T00:03:25.110Z,959.38
2017-10-22T00:04:25.174Z,959.40
2017-10-22T00:06:18.547Z,959.38
2017-10-22T00:07:18.554Z,959.37
2017-10-22T00:09:11.928Z,959.37
2017-10-22T00:10:11.943Z,959.35
2017-10-22T00:12:05.385Z,959.33
2017-10-22T00:13:05.370Z,959.38
2017-10-22T00:14:58.781Z,959.31
2017-10-22T00:15:58.788Z,959.29
2017-10-22T00:17:53.188Z,959.24
2017-10-22T00:18:53.149Z,959.28
2017-10-22T00:20:46.599Z,959.23
2017-10-22T00:21:46.605Z,959.23
2017-10-22T00:23:40.069Z,959.18
2017-10-22T00:24:39.967Z,959.16
2017-10-22T00:26:33.375Z,959.11
2017-10-22T00:27:33.402Z,959.12
2017-10-22T00:29:26.849Z,959.09
2017-10-22T00:30:26.843Z,959.01
2017-10-22T00:32:20.271Z,959.01
2017-10-22T00:33:20.197Z,959.00
2017-10-22T00:35:13.648Z,958.91
2017-10-22T00:36:13.600Z,958.97
2017-10-22T00:38:07.083Z,958.94
2017-10-22T00:39:07.034Z,958.99
2017-10-22T00:41:00.468Z,958.99
2017-10-22T00:42:00.428Z,959.01
2017-10-22T00:43:53.937Z,958.96
2017-10-22T00:44:53.861Z,958.94
2017-10-22T00:46:47.263Z,958.90
2017-10-22T00:47:47.274Z,958.88
2017-10-22T00:49:40.641Z,958.94
2017-10-22T00:50:40.659Z,958.98
2017-10-22T00:52:34.094Z,959.04
2017-10-22T00:53:34.100Z,959.10
2017-10-22T00:55:27.447Z,959.11
2017-10-22T00:56:27.539Z,959.16
2017-10-22T00:58:20.945Z,959.12
2017-10-22T00:59:20.933Z,959.08
2017-10-22T01:01:14.331Z,958.99
2017-10-22T01:02:14.313Z,958.99
2017-10-22T01:04:07.703Z,959.09
2017-10-22T01:05:07.885Z,959.16
2017-10-22T01:07:01.120Z,959.05
2017-10-22T01:08:01.099Z,959.13
2017-10-22T01:09:54.539Z,958.95
2017-10-22T01:10:54.540Z,958.93
2017-10-22T01:12:47.942Z,958.94
2017-10-22T01:13:47.959Z,958.85
2017-10-22T01:15:41.382Z,958.75
2017-10-22T01:16:41.376Z,958.75
2017-10-22T01:18:34.756Z,958.72
2017-10-22T01:19:34.760Z,958.72
2017-10-22T01:21:28.130Z,958.78
2017-10-22T01:22:28.152Z,958.78
2017-10-22T01:24:21.545Z,958.75
2017-10-22T01:25:21.624Z,958.67
2017-10-22T01:27:14.911Z,958.59
2017-10-22T01:28:14.945Z,958.62
2017-10-22T01:30:08.396Z,958.67
2017-10-22T01:31:08.341Z,958.66
2017-10-22T01:33:01.752Z,958.62
2017-10-22T01:34:01.836Z,958.61
2017-10-22T01:35:55.211Z,958.57
2017-10-22T01:36:55.240Z,958.55
2017-10-22T01:38:48.595Z,958.56
2017-10-22T01:39:48.604Z,958.56
2017-10-22T01:41:41.976Z,958.54
2017-10-22T01:42:49.616Z,958.62
2017-10-22T01:44:35.441Z,958.55
2017-10-22T01:45:35.433Z,958.57
2017-10-22T01:47:28.778Z,958.54
2017-10-22T01:48:28.800Z,958.51
2017-10-22T01:50:22.194Z,958.48
2017-10-22T01:51:22.193Z,958.44
2017-10-22T01:53:15.549Z,958.41
2017-10-22T01:54:15.573Z,958.40
2017-10-22T01:56:08.741Z,958.40
2017-10-22T01:57:09.231Z,958.41
2017-10-22T01:59:02.110Z,958.45
2017-10-22T02:00:02.144Z,958.43
2017-10-22T02:01:55.518Z,958.46
2017-10-22T02:02:55.528Z,958.45
2017-10-22T02:05:02.052Z,958.42
2017-10-22T02:06:01.704Z,958.39
2017-10-22T02:07:55.077Z,958.39
2017-10-22T02:08:55.041Z,958.39
2017-10-22T02:10:48.499Z,958.37
2017-10-22T02:11:48.467Z,958.35
2017-10-22T02:13:42.859Z,958.30
2017-10-22T02:14:43.747Z,958.22
2017-10-22T02:16:36.363Z,958.14
2017-10-22T02:17:36.329Z,958.18
2017-10-22T02:19:29.789Z,958.11
2017-10-22T02:20:29.790Z,958.17
2017-10-22T02:22:23.270Z,958.23
2017-10-22T02:23:23.249Z,958.20
2017-10-22T02:25:17.563Z,958.21
2017-10-22T02:26:17.699Z,958.15
2017-10-22T02:28:10.990Z,958.09
2017-10-22T02:29:11.003Z,958.11
2017-10-22T02:31:04.432Z,958.05
2017-10-22T02:32:04.477Z,958.04
2017-10-22T02:33:57.807Z,958.03
2017-10-22T02:34:57.821Z,958.04
2017-10-22T02:36:51.195Z,958.03
2017-10-22T02:37:51.192Z,958.04
2017-10-22T02:39:44.624Z,958.04
2017-10-22T02:40:44.641Z,958.04
2017-10-22T02:42:37.992Z,958.02
2017-10-22T02:43:38.027Z,957.98
2017-10-22T02:45:31.406Z,958.02
2017-10-22T02:46:31.432Z,957.95
2017-10-22T02:48:24.843Z,957.97
2017-10-22T02:49:24.811Z,957.91
2017-10-22T02:51:18.192Z,957.94
2017-10-22T02:52:18.194Z,957.93
2017-10-22T02:54:11.608Z,957.99
2017-10-22T02:55:11.582Z,957.95
2017-10-22T02:57:04.958Z,957.93
2017-10-22T02:58:05.030Z,957.90
2017-10-22T02:59:58.367Z,957.92
2017-10-22T03:00:58.362Z,957.91
2017-10-22T03:02:51.756Z,957.89
2017-10-22T03:03:51.782Z,957.93
2017-10-22T03:05:45.174Z,957.95
2017-10-22T03:06:45.174Z,957.96
2017-10-22T03:08:38.523Z,957.97
2017-10-22T03:09:38.574Z,957.97
2017-10-22T03:11:31.941Z,957.95
2017-10-22T03:12:31.956Z,957.94
2017-10-22T03:14:25.344Z,957.92
2017-10-22T03:15:25.352Z,957.89
2017-10-22T03:17:18.739Z,957.88
2017-10-22T03:18:18.733Z,957.88
2017-10-22T03:20:12.171Z,957.88
2017-10-22T03:21:12.150Z,957.91
2017-10-22T03:23:05.545Z,957.83
2017-10-22T03:24:05.549Z,957.83
2017-10-22T03:25:58.963Z,957.81
2017-10-22T03:26:58.962Z,957.79
2017-10-22T03:28:52.304Z,957.78
2017-10-22T03:29:52.335Z,957.77
2017-10-22T03:31:45.796Z,957.80
2017-10-22T03:32:45.753Z,957.77
2017-10-22T03:34:39.136Z,957.77
2017-10-22T03:35:39.121Z,957.79
2017-10-22T03:37:32.529Z,957.75
2017-10-22T03:38:32.514Z,957.75
2017-10-22T03:40:25.896Z,957.70
2017-10-22T03:41:25.939Z,957.72
2017-10-22T03:43:19.313Z,957.71
2017-10-22T03:44:19.319Z,957.70
2017-10-22T03:46:12.707Z,957.65
2017-10-22T03:47:12.707Z,957.66
2017-10-22T03:49:06.151Z,957.68
2017-10-22T03:50:06.124Z,957.71
2017-10-22T03:51:59.511Z,957.68
2017-10-22T03:52:59.531Z,957.65
2017-10-22T03:54:52.926Z,957.67
2017-10-22T03:55:52.927Z,957.65
2017-10-22T03:57:46.300Z,957.62
2017-10-22T03:58:46.320Z,957.64
2017-10-22T04:00:39.738Z,957.62
2017-10-22T04:01:39.710Z,957.62
2017-10-22T04:03:33.075Z,957.62
2017-10-22T04:04:33.089Z,957.55
2017-10-22T04:06:26.512Z,957.60
2017-10-22T04:07:26.503Z,957.57
2017-10-22T04:09:19.869Z,957.55
2017-10-22T04:10:19.912Z,957.56
2017-10-22T04:12:13.326Z,957.53
2017-10-22T04:13:13.293Z,957.54
2017-10-22T04:15:06.668Z,957.54
2017-10-22T04:16:06.702Z,957.56
2017-10-22T04:18:00.117Z,957.55
2017-10-22T04:19:00.092Z,957.58
2017-10-22T04:20:53.482Z,957.56
2017-10-22T04:21:53.483Z,957.53
2017-10-22T04:23:46.912Z,957.57
2017-10-22T04:24:46.892Z,957.53
2017-10-22T04:26:40.268Z,957.52
2017-10-22T04:27:40.248Z,957.52
2017-10-22T04:29:33.683Z,957.55
2017-10-22T04:30:33.648Z,957.49
2017-10-22T04:32:27.044Z,957.50
2017-10-22T04:33:27.052Z,957.55
2017-10-22T04:35:20.441Z,957.61
2017-10-22T04:36:20.446Z,957.58
2017-10-22T04:38:13.828Z,957.50
2017-10-22T04:39:13.831Z,957.51
2017-10-22T04:41:07.291Z,957.51
2017-10-22T04:42:07.266Z,957.51
2017-10-22T04:44:00.644Z,957.55
2017-10-22T04:45:00.643Z,957.57
2017-10-22T04:46:54.052Z,957.56
2017-10-22T04:47:54.043Z,957.58
2017-10-22T04:49:47.484Z,957.60
2017-10-22T04:50:47.454Z,957.58
2017-10-22T04:52:40.822Z,957.63
2017-10-22T04:53:40.835Z,957.62
2017-10-22T04:55:34.248Z,957.62
2017-10-22T04:56:34.225Z,957.61
2017-10-22T04:58:27.625Z,957.57
2017-10-22T04:59:27.635Z,957.56
2017-10-22T05:01:21.020Z,957.56
2017-10-22T05:02:21.036Z,957.57
2017-10-22T05:04:14.402Z,957.54
2017-10-22T05:05:14.430Z,957.51
2017-10-22T05:07:07.843Z,957.51
2017-10-22T05:08:07.827Z,957.51
2017-10-22T05:10:01.188Z,957.54
2017-10-22T05:11:01.186Z,957.54
2017-10-22T05:12:54.619Z,957.54
2017-10-22T05:13:54.597Z,957.52
2017-10-22T05:15:47.969Z,957.48
2017-10-22T05:16:47.989Z,957.51
2017-10-22T05:18:41.401Z,957.53
2017-10-22T05:19:41.396Z,957.54
2017-10-22T05:21:34.798Z,957.54
2017-10-22T05:22:34.797Z,957.51
2017-10-22T05:24:28.188Z,957.56
2017-10-22T05:25:28.181Z,957.49
2017-10-22T05:27:21.543Z,957.53
2017-10-22T05:28:21.549Z,957.52
2017-10-22T05:30:14.961Z,957.52
2017-10-22T05:31:14.978Z,957.51
2017-10-22T05:33:08.373Z,957.53
2017-10-22T05:34:08.333Z,957.58
2017-10-22T05:36:01.732Z,957.62
2017-10-22T05:37:01.751Z,957.58
2017-10-22T05:38:55.166Z,957.54
2017-10-22T05:39:55.152Z,957.53
2017-10-22T05:41:48.539Z,957.48
2017-10-22T05:42:48.527Z,957.44
2017-10-22T05:44:41.956Z,957.44
2017-10-22T05:45:41.938Z,957.48
2017-10-22T05:47:35.309Z,957.48
2017-10-22T05:48:35.329Z,957.41
2017-10-22T05:50:28.725Z,957.47
2017-10-22T05:51:28.716Z,957.47
2017-10-22T05:53:22.089Z,957.50
2017-10-22T05:54:22.117Z,957.53
2017-10-22T05:56:15.527Z,957.53
2017-10-22T05:57:15.508Z,957.52
2017-10-22T05:59:08.889Z,957.52
2017-10-22T06:00:08.906Z,957.54
2017-10-22T06:02:02.292Z,957.61
2017-10-22T06:03:02.301Z,957.64
2017-10-22T06:04:55.676Z,957.59
2017-10-22T06:05:55.666Z,957.62
2017-10-22T06:07:49.092Z,957.60
2017-10-22T06:08:49.082Z,957.59
2017-10-22T06:10:42.447Z,957.64
2017-10-22T06:11:42.471Z,957.67
2017-10-22T06:13:35.866Z,957.67
2017-10-22T06:14:35.855Z,957.68
2017-10-22T06:16:29.248Z,957.72
2017-10-22T06:17:29.268Z,957.69
2017-10-22T06:19:22.665Z,957.67
2017-10-22T06:20:22.677Z,957.63
2017-10-22T06:22:16.033Z,957.66
2017-10-22T06:23:16.076Z,957.67
2017-10-22T06:25:09.474Z,957.77
2017-10-22T06:26:09.465Z,957.71
2017-10-22T06:28:02.834Z,957.71
2017-10-22T06:29:02.851Z,957.70
2017-10-22T06:30:56.260Z,957.70
2017-10-22T06:31:56.252Z,957.71
2017-10-22T06:33:49.634Z,957.75
2017-10-22T06:34:49.629Z,957.70
2017-10-22T06:36:43.034Z,957.63
2017-10-22T06:37:43.050Z,957.62
2017-10-22T06:39:36.438Z,957.61
2017-10-22T06:40:36.427Z,957.67
2017-10-22T06:42:29.826Z,957.67
2017-10-22T06:43:29.814Z,957.66
2017-10-22T06:45:23.192Z,957.60
2017-10-22T06:46:23.212Z,957.61
2017-10-22T06:48:16.614Z,957.63
2017-10-22T06:49:16.595Z,957.62
2017-10-22T06:51:10.001Z,957.61
2017-10-22T06:52:09.989Z,957.63
2017-10-22T06:54:03.401Z,957.67
2017-10-22T06:55:03.403Z,957.69
2017-10-22T06:56:56.769Z,957.68
2017-10-22T06:57:56.781Z,957.69
2017-10-22T06:59:50.181Z,957.70
2017-10-22T07:00:50.219Z,957.75
2017-10-22T07:02:43.641Z,957.79
2017-10-22T07:03:43.574Z,957.83
2017-10-22T07:05:36.960Z,957.86
2017-10-22T07:06:36.970Z,957.88
2017-10-22T07:08:30.371Z,957.91
2017-10-22T07:09:30.353Z,957.93
2017-10-22T07:11:23.757Z,957.90
2017-10-22T07:12:23.752Z,957.91
2017-10-22T07:14:17.175Z,957.91
2017-10-22T07:15:17.167Z,957.90
2017-10-22T07:17:10.544Z,957.94
2017-10-22T07:18:10.556Z,957.97
2017-10-22T07:20:03.950Z,958.00
2017-10-22T07:21:03.934Z,957.99
2017-10-22T07:22:57.325Z,958.00
2017-10-22T07:23:57.361Z,957.94
2017-10-22T07:25:50.756Z,958.02
2017-10-22T07:26:50.777Z,957.94
2017-10-22T07:28:44.150Z,957.96
2017-10-22T07:29:44.149Z,957.98
2017-10-22T07:31:37.551Z,957.91
2017-10-22T07:32:37.537Z,957.92
2017-10-22T07:34:30.924Z,957.92
2017-10-22T07:35:30.929Z,957.92
2017-10-22T07:37:24.338Z,957.94
2017-10-22T07:38:24.323Z,957.91
2017-10-22T07:40:17.752Z,957.87
2017-10-22T07:41:17.731Z,957.88
2017-10-22T07:43:11.109Z,957.88
2017-10-22T07:44:11.111Z,958.01
2017-10-22T07:46:04.522Z,957.92
2017-10-22T07:47:04.505Z,957.94
2017-10-22T07:48:57.898Z,957.96
2017-10-22T07:49:57.897Z,957.96
2017-10-22T07:51:51.309Z,957.95
2017-10-22T07:52:51.290Z,957.93
2017-10-22T07:54:44.697Z,958.00
2017-10-22T07:55:44.713Z,958.00
2017-10-22T07:57:38.112Z,958.05
2017-10-22T07:58:38.117Z,958.07
2017-10-22T08:00:31.541Z,958.10
2017-10-22T08:01:31.484Z,958.10
2017-10-22T08:03:51.897Z,958.16
2017-10-22T08:04:50.748Z,958.17
2017-10-22T08:06:44.117Z,958.17
2017-10-22T08:07:44.254Z,958.18
2017-10-22T08:09:37.458Z,958.18
2017-10-22T08:10:37.472Z,958.10
2017-10-22T08:12:30.903Z,958.14
2017-10-22T08:13:30.884Z,958.17
2017-10-22T08:15:24.259Z,958.12
2017-10-22T08:16:24.283Z,958.12
2017-10-22T08:18:18.228Z,958.13
2017-10-22T08:19:17.687Z,958.19
2017-10-22T08:21:11.040Z,958.23
2017-10-22T08:22:10.815Z,958.24
2017-10-22T08:24:04.192Z,958.22
2017-10-22T08:25:04.792Z,958.20
2017-10-22T08:26:57.560Z,958.12
2017-10-22T08:27:57.568Z,958.07
2017-10-22T08:29:51.014Z,958.14
2017-10-22T08:30:50.994Z,958.16
2017-10-22T08:32:44.420Z,958.18
2017-10-22T08:33:44.414Z,958.21
2017-10-22T08:35:37.796Z,958.22
2017-10-22T08:36:37.758Z,958.20
2017-10-22T08:38:31.137Z,958.30
2017-10-22T08:39:31.141Z,958.30
2017-10-22T08:41:24.554Z,958.35
2017-10-22T08:42:24.533Z,958.35
2017-10-22T08:44:17.934Z,958.34
2017-10-22T08:45:17.961Z,958.33
2017-10-22T08:47:11.381Z,958.32
2017-10-22T08:48:11.364Z,958.35
2017-10-22T08:50:04.777Z,958.30
2017-10-22T08:51:04.745Z,958.35
2017-10-22T08:52:58.158Z,958.34
2017-10-22T08:53:58.163Z,958.34
2017-10-22T08:55:51.127Z,958.32
2017-10-22T08:56:51.132Z,958.36
2017-10-22T08:58:44.548Z,958.34
2017-10-22T08:59:44.533Z,958.35
2017-10-22T09:01:37.949Z,958.44
2017-10-22T09:02:37.955Z,958.36
2017-10-22T09:04:31.351Z,958.35
2017-10-22T09:05:34.064Z,958.40
2017-10-22T09:07:24.723Z,958.34
2017-10-22T09:08:24.749Z,958.35
2017-10-22T09:10:18.146Z,958.38
2017-10-22T09:11:18.131Z,958.26
2017-10-22T09:13:11.685Z,958.28
2017-10-22T09:14:11.617Z,958.27
2017-10-22T09:16:05.015Z,958.21
2017-10-22T09:17:05.023Z,958.29
2017-10-22T09:18:58.599Z,958.26
2017-10-22T09:19:58.440Z,958.28
2017-10-22T09:21:51.804Z,958.20
2017-10-22T09:22:51.811Z,958.28
2017-10-22T09:24:45.299Z,958.24
2017-10-22T09:25:45.260Z,958.18
2017-10-22T09:27:38.856Z,958.22
2017-10-22T09:28:38.660Z,958.22
2017-10-22T09:30:33.668Z,958.21
2017-10-22T09:31:32.070Z,958.19
2017-10-22T09:33:25.471Z,958.21
2017-10-22T09:34:25.479Z,958.22
2017-10-22T09:36:18.875Z,958.26
2017-10-22T09:37:18.855Z,958.18
2017-10-22T09:39:12.247Z,958.23
2017-10-22T09:40:12.368Z,958.23
2017-10-22T09:42:07.657Z,958.13
2017-10-22T09:43:08.129Z,958.15
2017-10-22T09:45:01.649Z,958.18
2017-10-22T09:46:02.622Z,958.17
2017-10-22T09:47:54.566Z,958.24
2017-10-22T09:48:56.083Z,958.31
2017-10-22T09:50:50.235Z,958.21
2017-10-22T09:51:47.773Z,958.28
2017-10-22T09:53:43.487Z,958.21
2017-10-22T09:54:43.789Z,958.09
2017-10-22T09:56:39.627Z,958.11
2017-10-22T09:57:38.628Z,958.23
2017-10-22T09:59:31.978Z,958.11
2017-10-22T10:00:33.526Z,958.02
2017-10-22T10:02:27.928Z,958.00
2017-10-22T10:03:27.631Z,958.08
2017-10-22T10:05:24.111Z,958.01
2017-10-22T10:06:21.070Z,958.20
2017-10-22T10:08:14.298Z,958.00
2017-10-22T10:09:14.529Z,958.37
2017-10-22T10:11:09.135Z,958.37
2017-10-22T10:12:07.763Z,958.43
2017-10-22T10:14:03.508Z,958.02
2017-10-22T10:15:03.765Z,958.01
2017-10-22T10:17:00.399Z,957.86
2017-10-22T10:18:05.282Z,957.90
2017-10-22T10:19:53.212Z,957.86
2017-10-22T10:20:50.930Z,957.86
2017-10-22T10:22:45.625Z,957.87
2017-10-22T10:23:45.659Z,957.83
2017-10-22T10:25:40.995Z,957.83
2017-10-22T10:26:48.510Z,957.80
2017-10-22T10:28:35.683Z,957.91
2017-10-22T10:29:37.716Z,957.77
2017-10-22T10:30:43.684Z,957.78
2017-10-22T10:32:29.117Z,957.75
2017-10-22T10:33:29.878Z,957.77
2017-10-22T10:36:24.653Z,957.87
2017-10-22T10:38:19.205Z,958.01
2017-10-22T10:39:20.539Z,958.43
2017-10-22T10:41:14.329Z,958.44
2017-10-22T10:43:20.665Z,957.76
2017-10-22T10:45:22.220Z,957.76
2017-10-22T10:46:28.162Z,958.36
2017-10-22T10:48:15.852Z,958.19
2017-10-22T10:49:23.484Z,957.78
2017-10-22T10:50:24.811Z,958.39
2017-10-22T10:52:11.692Z,957.77
2017-10-22T10:53:16.476Z,957.76
2017-10-22T10:55:05.781Z,957.72
2017-10-22T10:56:12.261Z,957.64
2017-10-22T10:58:00.343Z,957.55
2017-10-22T10:59:00.121Z,957.93
2017-10-22T11:00:53.284Z,957.45
2017-10-22T11:01:53.344Z,957.39
2017-10-22T11:03:47.083Z,957.33
2017-10-22T11:04:47.825Z,957.32
2017-10-22T11:06:44.109Z,957.42
2017-10-22T11:07:43.562Z,957.32
2017-10-22T11:09:37.366Z,957.29
2017-10-22T11:10:37.057Z,957.23
2017-10-22T11:12:30.504Z,957.24
2017-10-22T11:13:30.426Z,957.19
2017-10-22T11:15:24.870Z,957.18
2017-10-22T11:16:25.263Z,957.10
2017-10-22T11:17:32.327Z,957.06
2017-10-22T11:19:46.135Z,957.08
2017-10-22T11:20:47.779Z,957.07
2017-10-22T11:22:40.460Z,957.07
2017-10-22T11:23:40.378Z,957.06
2017-10-22T11:25:33.752Z,957.04
2017-10-22T11:26:33.770Z,956.99
2017-10-22T11:28:27.236Z,956.96
2017-10-22T11:29:27.307Z,956.93
2017-10-22T11:31:20.617Z,956.92
2017-10-22T11:32:20.583Z,956.90
2017-10-22T11:34:13.994Z,956.86
2017-10-22T11:35:13.999Z,956.80
2017-10-22T11:37:07.378Z,956.78
2017-10-22T11:38:07.359Z,956.75
2017-10-22T11:40:01.207Z,956.72
2017-10-22T11:41:00.775Z,956.73
2017-10-22T11:42:55.358Z,956.73
2017-10-22T11:43:55.461Z,956.72
2017-10-22T11:45:48.110Z,956.72
2017-10-22T11:46:48.233Z,956.84
2017-10-22T11:48:41.541Z,956.97
2017-10-22T11:49:41.534Z,956.75
2017-10-22T11:51:34.936Z,956.72
2017-10-22T11:52:34.950Z,956.61
2017-10-22T11:54:28.318Z,956.60
2017-10-22T11:55:28.341Z,956.58
2017-10-22T11:57:21.744Z,956.81
2017-10-22T11:58:21.827Z,956.70
2017-10-22T12:00:15.301Z,956.79
2017-10-22T12:01:15.928Z,956.67
2017-10-22T12:03:10.014Z,956.75
2017-10-22T12:04:08.740Z,956.84
2017-10-22T12:06:05.178Z,956.82
2017-10-22T12:07:05.328Z,956.53
2017-10-22T12:08:59.450Z,956.46
2017-10-22T12:09:59.536Z,956.41
2017-10-22T12:11:52.869Z,956.38
2017-10-22T12:12:52.868Z,956.42
2017-10-22T12:14:46.246Z,956.33
2017-10-22T12:15:46.282Z,956.36
2017-10-22T12:17:39.679Z,956.34
2017-10-22T12:18:39.657Z,956.38
2017-10-22T12:20:32.600Z,956.28
2017-10-22T12:21:32.572Z,956.26
2017-10-22T12:23:25.974Z,956.30
2017-10-22T12:24:25.978Z,956.28
2017-10-22T12:26:19.357Z,956.28
2017-10-22T12:27:19.361Z,956.23
2017-10-22T12:29:12.818Z,956.26
2017-10-22T12:30:12.800Z,956.28
2017-10-22T12:32:06.193Z,956.28
2017-10-22T12:33:06.225Z,956.31
2017-10-22T12:34:59.619Z,956.54
2017-10-22T12:35:59.615Z,956.49
2017-10-22T12:37:52.979Z,956.57
2017-10-22T12:38:52.987Z,956.56
2017-10-22T12:40:46.413Z,956.54
2017-10-22T12:41:46.395Z,956.54
2017-10-22T12:43:39.809Z,956.48
2017-10-22T12:44:39.798Z,956.30
2017-10-22T12:46:33.217Z,956.12
2017-10-22T12:47:33.199Z,956.27
2017-10-22T12:49:26.585Z,956.34
2017-10-22T12:50:26.598Z,956.30
2017-10-22T12:52:20.045Z,956.33
2017-10-22T12:53:19.994Z,956.39
2017-10-22T12:55:13.395Z,956.34
2017-10-22T12:56:13.394Z,956.40
2017-10-22T12:58:06.812Z,956.36
2017-10-22T12:59:06.796Z,956.36
2017-10-22T13:00:59.698Z,956.19
2017-10-22T13:01:59.710Z,956.15
2017-10-22T13:03:53.224Z,956.34
2017-10-22T13:04:53.203Z,956.34
2017-10-22T13:06:46.591Z,956.27
2017-10-22T13:07:46.604Z,956.33
2017-10-22T13:09:40.027Z,956.40
2017-10-22T13:10:40.017Z,956.41
2017-10-22T13:12:33.419Z,956.36
2017-10-22T13:13:33.426Z,956.31
2017-10-22T13:15:26.836Z,956.37
2017-10-22T13:16:26.824Z,956.36
2017-10-22T13:18:20.231Z,956.28
2017-10-22T13:19:20.232Z,956.21
2017-10-22T13:21:13.674Z,956.10
2017-10-22T13:22:14.552Z,956.16
2017-10-22T13:24:16.153Z,956.02
2017-10-22T13:25:17.077Z,956.05
2017-10-22T13:27:02.872Z,956.00
2017-10-22T13:28:02.737Z,955.97
2017-10-22T13:29:55.881Z,955.94
2017-10-22T13:30:55.886Z,955.90
2017-10-22T13:32:49.365Z,955.91
2017-10-22T13:33:50.020Z,955.94
2017-10-22T13:35:43.115Z,955.97
2017-10-22T13:36:43.816Z,955.94
2017-10-22T13:38:35.635Z,956.07
2017-10-22T13:39:35.621Z,956.10
2017-10-22T13:41:29.015Z,956.06
2017-10-22T13:42:29.022Z,956.04
2017-10-22T13:44:22.475Z,956.02
2017-10-22T13:45:22.425Z,956.06
2017-10-22T13:47:15.817Z,956.04
2017-10-22T13:48:15.822Z,956.09
2017-10-22T13:50:08.742Z,956.01
2017-10-22T13:51:08.727Z,956.01
2017-10-22T13:53:02.488Z,956.00
2017-10-22T13:54:02.499Z,956.08
2017-10-22T13:55:55.915Z,956.00
2017-10-22T13:56:55.904Z,956.08
2017-10-22T13:58:49.303Z,956.02
2017-10-22T13:59:49.307Z,956.01
2017-10-22T14:01:43.808Z,956.03
2017-10-22T14:02:43.774Z,956.07
2017-10-22T14:04:37.409Z,956.05
2017-10-22T14:05:38.689Z,956.08
2017-10-22T14:07:30.807Z,956.15
2017-10-22T14:08:30.558Z,956.11
2017-10-22T14:10:24.019Z,956.06
2017-10-22T14:11:24.568Z,956.15
2017-10-22T14:13:21.965Z,956.26
2017-10-22T14:14:17.662Z,956.30
2017-10-22T14:16:11.034Z,956.41
2017-10-22T14:17:11.765Z,956.43
2017-10-22T14:19:04.547Z,956.39
2017-10-22T14:20:04.524Z,956.35
2017-10-22T14:22:01.430Z,956.18
2017-10-22T14:22:59.457Z,956.21
2017-10-22T14:24:50.922Z,956.15
2017-10-22T14:25:50.924Z,956.09
2017-10-22T14:27:45.347Z,956.14
2017-10-22T14:28:45.821Z,956.14
2017-10-22T14:30:43.787Z,956.15
2017-10-22T14:31:39.286Z,956.12
2017-10-22T14:33:35.091Z,956.11
2017-10-22T14:36:12.947Z,956.16
2017-10-22T14:37:12.951Z,956.09
2017-10-22T14:39:06.487Z,956.16
2017-10-22T14:40:07.427Z,956.14
2017-10-22T14:41:59.819Z,956.16
2017-10-22T14:42:59.820Z,956.17
2017-10-22T14:44:53.209Z,956.15
2017-10-22T14:45:53.205Z,956.11
2017-10-22T14:47:46.622Z,956.09
2017-10-22T14:48:47.304Z,956.15
2017-10-22T14:50:39.633Z,956.20
2017-10-22T14:51:40.599Z,956.16
2017-10-22T14:53:34.066Z,956.24
2017-10-22T14:54:34.067Z,956.24
2017-10-22T14:56:27.533Z,956.25
2017-10-22T14:57:27.446Z,956.29
2017-10-22T14:59:20.903Z,956.22
2017-10-22T15:00:20.830Z,956.20
2017-10-22T15:02:14.210Z,956.21
2017-10-22T15:03:14.252Z,956.20
2017-10-22T15:05:07.626Z,956.17
2017-10-22T15:06:07.656Z,956.15
2017-10-22T15:08:01.890Z,956.20
2017-10-22T15:09:01.939Z,956.19
2017-10-22T15:10:54.615Z,956.21
2017-10-22T15:11:54.472Z,956.20
2017-10-22T15:13:48.894Z,956.16
2017-10-22T15:14:48.875Z,956.19
2017-10-22T15:16:43.251Z,956.21
2017-10-22T15:17:43.386Z,956.23
2017-10-22T15:19:36.831Z,956.23
2017-10-22T15:20:36.742Z,956.26
2017-10-22T15:22:30.284Z,956.28
2017-10-22T15:23:30.229Z,956.28
2017-10-22T15:25:24.690Z,956.29
2017-10-22T15:26:24.573Z,956.29
2017-10-22T15:28:17.979Z,956.29
2017-10-22T15:29:18.013Z,956.30
2017-10-22T15:31:11.438Z,956.32
2017-10-22T15:32:11.381Z,956.32
2017-10-22T15:34:05.474Z,956.29
2017-10-22T15:35:05.375Z,956.27
2017-10-22T15:36:58.813Z,956.22
2017-10-22T15:37:58.841Z,956.26
2017-10-22T15:39:53.212Z,956.23
2017-10-22T15:40:53.218Z,956.24
2017-10-22T15:42:46.589Z,956.18
2017-10-22T15:43:46.545Z,956.21
2017-10-22T15:45:40.069Z,956.17
2017-10-22T15:46:40.053Z,956.22
2017-10-22T15:48:34.511Z,956.23
2017-10-22T15:49:34.446Z,956.18
2017-10-22T15:51:27.760Z,956.17
2017-10-22T15:52:35.391Z,956.26
2017-10-22T15:54:21.223Z,956.24
2017-10-22T15:55:21.371Z,956.26
2017-10-22T15:57:14.574Z,956.29
2017-10-22T15:58:14.593Z,956.25
2017-10-22T16:00:08.002Z,956.30
2017-10-22T16:01:08.015Z,956.33
2017-10-22T16:03:01.359Z,956.36
2017-10-22T16:04:01.481Z,956.35
2017-10-22T16:05:54.800Z,956.39
2017-10-22T16:06:54.788Z,956.40
2017-10-22T16:08:48.304Z,956.43
2017-10-22T16:09:48.219Z,956.42
2017-10-22T16:11:41.706Z,956.45
2017-10-22T16:12:49.137Z,956.47
2017-10-22T16:14:35.021Z,956.49
2017-10-22T16:15:35.011Z,956.46
2017-10-22T16:17:28.488Z,956.48
2017-10-22T16:18:28.409Z,956.55
2017-10-22T16:20:21.804Z,956.51
2017-10-22T16:21:21.797Z,956.52
2017-10-22T16:23:15.145Z,956.52
2017-10-22T16:24:15.175Z,956.55
2017-10-22T16:26:08.738Z,956.57
2017-10-22T16:27:08.594Z,956.56
2017-10-22T16:29:02.072Z,956.55
2017-10-22T16:30:01.981Z,956.60
2017-10-22T16:31:55.389Z,956.57
2017-10-22T16:33:03.111Z,956.57
2017-10-22T16:34:48.750Z,956.58
2017-10-22T16:35:48.761Z,956.56
2017-10-22T16:37:42.196Z,956.60
2017-10-22T16:38:42.593Z,956.61
2017-10-22T16:40:47.444Z,956.62
2017-10-22T16:43:08.197Z,956.68
2017-10-22T16:44:09.342Z,956.69
2017-10-22T16:45:54.868Z,956.70
2017-10-22T16:47:03.549Z,956.72
2017-10-22T16:48:49.193Z,956.75
2017-10-22T16:49:49.202Z,956.77
2017-10-22T16:51:42.673Z,956.80
2017-10-22T16:52:42.603Z,956.83
2017-10-22T16:54:35.979Z,956.89
2017-10-22T16:55:35.982Z,956.86
2017-10-22T16:57:29.393Z,956.87
2017-10-22T16:58:29.380Z,956.92
2017-10-22T17:00:22.765Z,956.96
2017-10-22T17:01:22.769Z,956.94
2017-10-22T17:03:16.181Z,956.96
2017-10-22T17:04:16.162Z,956.95
2017-10-22T17:06:09.550Z,956.98
2017-10-22T17:07:09.555Z,956.99
2017-10-22T17:09:02.961Z,957.04
2017-10-22T17:10:02.948Z,957.03
2017-10-22T17:11:56.385Z,957.05
2017-10-22T17:12:56.350Z,957.08
2017-10-22T17:14:49.778Z,957.06
2017-10-22T17:15:49.753Z,957.12
2017-10-22T17:17:43.165Z,957.13
2017-10-22T17:18:43.147Z,957.16
2017-10-22T17:20:36.531Z,957.16
2017-10-22T17:21:36.538Z,957.17
2017-10-22T17:23:29.967Z,957.20
2017-10-22T17:24:29.937Z,957.23
2017-10-22T17:26:23.322Z,957.21
2017-10-22T17:27:23.324Z,957.19
2017-10-22T17:29:16.734Z,957.29
2017-10-22T17:30:16.723Z,957.27
2017-10-22T17:32:10.107Z,957.29
2017-10-22T17:33:10.108Z,957.31
2017-10-22T17:35:04.569Z,957.31
2017-10-22T17:36:04.580Z,957.33
2017-10-22T17:37:58.959Z,957.39
2017-10-22T17:38:59.001Z,957.37
2017-10-22T17:40:52.401Z,957.40
2017-10-22T17:41:52.372Z,957.42
2017-10-22T17:43:45.768Z,957.42
2017-10-22T17:44:45.747Z,957.47
2017-10-22T17:46:40.192Z,957.46
2017-10-22T17:47:40.161Z,957.47
2017-10-22T17:49:33.623Z,957.50
2017-10-22T17:50:33.572Z,957.51
2017-10-22T17:52:26.967Z,957.52
2017-10-22T17:53:27.015Z,957.56
2017-10-22T17:55:20.424Z,957.55
2017-10-22T17:56:20.347Z,957.55
2017-10-22T17:58:13.805Z,957.57
2017-10-22T17:59:13.764Z,957.64
2017-10-22T18:01:07.180Z,957.58
2017-10-22T18:02:07.236Z,957.60
2017-10-22T18:04:00.584Z,957.64
2017-10-22T18:05:08.153Z,957.66
2017-10-22T18:06:53.987Z,957.73